sensor_id;sensor_type;location;lat;lon;timestamp;pressure;altitude;pressure_sealevel;temperature;humidity
52935;BME280;38802;50.198;19.796;2022-09-27T00:01:47;95011.16;;;8.47;88.30
52935;BME280;38802;50.198;19.796;2022-09-27T00:04:16;95011.49;;;8.47;88.37
52935;BME280;38802;50.198;19.796;2022-09-27T00:06:44;95004.89;;;8.45;88.24
52935;BME280;38802;50.198;19.796;2022-09-27T00:09:12;95004.44;;;8.45;88.25
52935;BME280;38802;50.198;19.796;2022-09-27T00:11:41;94997.27;;;8.43;88.30
52935;BME280;38802;50.198;19.796;2022-09-27T00:14:14;94994.73;;;8.43;88.38
52935;BME280;38802;50.198;19.796;2022-09-27T00:16:43;94989.17;;;8.41;88.29
52935;BME280;38802;50.198;19.796;2022-09-27T00:19:15;94986.55;;;8.40;88.19
52935;BME280;38802;50.198;19.796;2022-09-27T00:21:44;94985.34;;;8.36;88.23
52935;BME280;38802;50.198;19.796;2022-09-27T00:24:15;94985.51;;;8.34;88.13
52935;BME280;38802;50.198;19.796;2022-09-27T00:26:44;94989.23;;;8.32;88.14
52935;BME280;38802;50.198;19.796;2022-09-27T00:29:15;94985.05;;;8.28;88.17
52935;BME280;38802;50.198;19.796;2022-09-27T00:31:45;94983.00;;;8.26;88.24
52935;BME280;38802;50.198;19.796;2022-09-27T00:34:18;94981.41;;;8.24;88.14
52935;BME280;38802;50.198;19.796;2022-09-27T00:36:49;94981.36;;;8.21;88.14
52935;BME280;38802;50.198;19.796;2022-09-27T00:39:18;94979.20;;;8.20;88.36
52935;BME280;38802;50.198;19.796;2022-09-27T00:41:46;94976.23;;;8.18;88.39
52935;BME280;38802;50.198;19.796;2022-09-27T00:47:03;94971.63;;;8.16;88.44
52935;BME280;38802;50.198;19.796;2022-09-27T00:49:48;94966.58;;;8.14;88.29
52935;BME280;38802;50.198;19.796;2022-09-27T00:54:52;94963.85;;;8.12;88.40
52935;BME280;38802;50.198;19.796;2022-09-27T00:57:22;94959.55;;;8.10;88.37
52935;BME280;38802;50.198;19.796;2022-09-27T00:59:58;94956.14;;;8.09;88.40
52935;BME280;38802;50.198;19.796;2022-09-27T01:02:28;94951.67;;;8.07;88.31
52935;BME280;38802;50.198;19.796;2022-09-27T01:04:57;94952.02;;;8.05;88.36
52935;BME280;38802;50.198;19.796;2022-09-27T01:07:26;94950.42;;;8.04;88.51
52935;BME280;38802;50.198;19.796;2022-09-27T01:09:54;94949.83;;;8.03;88.47
52935;BME280;38802;50.198;19.796;2022-09-27T01:15:52;94939.92;;;8.00;88.52
52935;BME280;38802;50.198;19.796;2022-09-27T01:21:33;94937.36;;;7.98;88.48
52935;BME280;38802;50.198;19.796;2022-09-27T01:27:29;94937.61;;;7.97;88.61
52935;BME280;38802;50.198;19.796;2022-09-27T01:30:24;94928.00;;;7.96;88.70
52935;BME280;38802;50.198;19.796;2022-09-27T01:41:59;94915.92;;;7.92;88.78
52935;BME280;38802;50.198;19.796;2022-09-27T01:44:48;94909.05;;;7.92;88.92
52935;BME280;38802;50.198;19.796;2022-09-27T01:47:22;94904.70;;;7.92;88.76
52935;BME280;38802;50.198;19.796;2022-09-27T01:50:03;94903.50;;;7.92;88.80
52935;BME280;38802;50.198;19.796;2022-09-27T01:52:39;94895.64;;;7.91;88.77
52935;BME280;38802;50.198;19.796;2022-09-27T01:55:12;94893.60;;;7.90;88.77
52935;BME280;38802;50.198;19.796;2022-09-27T01:58:55;94885.91;;;7.87;88.68
52935;BME280;38802;50.198;19.796;2022-09-27T02:01:27;94882.34;;;7.87;88.84
52935;BME280;38802;50.198;19.796;2022-09-27T02:03:57;94879.46;;;7.87;89.02
52935;BME280;38802;50.198;19.796;2022-09-27T02:06:38;94875.42;;;7.89;89.00
52935;BME280;38802;50.198;19.796;2022-09-27T02:09:34;94867.67;;;7.88;89.00
52935;BME280;38802;50.198;19.796;2022-09-27T02:12:21;94867.65;;;7.86;88.95
52935;BME280;38802;50.198;19.796;2022-09-27T02:14:55;94864.00;;;7.85;88.92
52935;BME280;38802;50.198;19.796;2022-09-27T02:20:14;94868.27;;;7.84;88.92
52935;BME280;38802;50.198;19.796;2022-09-27T02:22:55;94863.87;;;7.83;88.96
52935;BME280;38802;50.198;19.796;2022-09-27T02:30:42;94843.75;;;7.76;88.79
52935;BME280;38802;50.198;19.796;2022-09-27T02:33:27;94849.11;;;7.74;88.99
52935;BME280;38802;50.198;19.796;2022-09-27T02:35:57;94843.90;;;7.74;89.07
52935;BME280;38802;50.198;19.796;2022-09-27T02:38:25;94840.82;;;7.74;89.02
52935;BME280;38802;50.198;19.796;2022-09-27T02:40:54;94847.34;;;7.72;89.04
52935;BME280;38802;50.198;19.796;2022-09-27T02:43:25;94842.63;;;7.71;88.95
52935;BME280;38802;50.198;19.796;2022-09-27T02:55:00;94849.40;;;7.64;89.02
52935;BME280;38802;50.198;19.796;2022-09-27T03:01:48;94846.36;;;7.65;89.40
52935;BME280;38802;50.198;19.796;2022-09-27T03:04:38;94842.09;;;7.68;89.52
52935;BME280;38802;50.198;19.796;2022-09-27T03:07:07;94833.00;;;7.69;89.45
52935;BME280;38802;50.198;19.796;2022-09-27T03:09:44;94832.58;;;7.66;89.25
52935;BME280;38802;50.198;19.796;2022-09-27T03:12:15;94834.85;;;7.66;89.27
52935;BME280;38802;50.198;19.796;2022-09-27T03:14:56;94833.52;;;7.65;89.37
52935;BME280;38802;50.198;19.796;2022-09-27T03:17:43;94840.08;;;7.64;89.26
52935;BME280;38802;50.198;19.796;2022-09-27T03:20:23;94837.61;;;7.64;89.29
52935;BME280;38802;50.198;19.796;2022-09-27T03:22:59;94836.54;;;7.64;89.40
52935;BME280;38802;50.198;19.796;2022-09-27T03:25:27;94838.48;;;7.64;89.35
52935;BME280;38802;50.198;19.796;2022-09-27T03:27:55;94836.16;;;7.63;89.30
52935;BME280;38802;50.198;19.796;2022-09-27T03:30:23;94838.71;;;7.61;89.31
52935;BME280;38802;50.198;19.796;2022-09-27T03:32:51;94835.96;;;7.59;89.25
52935;BME280;38802;50.198;19.796;2022-09-27T03:35:44;94829.76;;;7.57;89.32
52935;BME280;38802;50.198;19.796;2022-09-27T03:38:14;94816.73;;;7.56;89.34
52935;BME280;38802;50.198;19.796;2022-09-27T03:40:42;94813.03;;;7.55;89.32
52935;BME280;38802;50.198;19.796;2022-09-27T03:43:13;94819.17;;;7.54;89.45
52935;BME280;38802;50.198;19.796;2022-09-27T03:45:42;94819.38;;;7.52;89.29
52935;BME280;38802;50.198;19.796;2022-09-27T03:48:12;94816.84;;;7.49;89.17
52935;BME280;38802;50.198;19.796;2022-09-27T03:50:41;94811.86;;;7.47;89.42
52935;BME280;38802;50.198;19.796;2022-09-27T03:53:09;94810.16;;;7.43;89.27
52935;BME280;38802;50.198;19.796;2022-09-27T03:55:37;94803.30;;;7.37;89.19
52935;BME280;38802;50.198;19.796;2022-09-27T03:58:06;94800.78;;;7.32;89.21
52935;BME280;38802;50.198;19.796;2022-09-27T04:00:35;94799.57;;;7.29;89.16
52935;BME280;38802;50.198;19.796;2022-09-27T04:03:04;94805.45;;;7.25;89.21
52935;BME280;38802;50.198;19.796;2022-09-27T04:05:50;94804.27;;;7.21;89.13
52935;BME280;38802;50.198;19.796;2022-09-27T04:08:21;94795.46;;;7.19;89.19
52935;BME280;38802;50.198;19.796;2022-09-27T04:10:50;94795.60;;;7.15;89.13
52935;BME280;38802;50.198;19.796;2022-09-27T04:13:18;94794.77;;;7.11;89.06
52935;BME280;38802;50.198;19.796;2022-09-27T04:15:52;94790.69;;;7.09;89.07
52935;BME280;38802;50.198;19.796;2022-09-27T04:18:39;94788.54;;;7.06;89.32
52935;BME280;38802;50.198;19.796;2022-09-27T04:21:26;94790.19;;;7.03;89.25
52935;BME280;38802;50.198;19.796;2022-09-27T04:23:55;94784.23;;;7.04;89.29
52935;BME280;38802;50.198;19.796;2022-09-27T04:26:23;94784.37;;;7.02;89.29
52935;BME280;38802;50.198;19.796;2022-09-27T04:29:01;94785.05;;;6.97;89.12
52935;BME280;38802;50.198;19.796;2022-09-27T04:31:31;94790.46;;;6.94;89.04
52935;BME280;38802;50.198;19.796;2022-09-27T04:34:17;94790.67;;;6.92;89.33
52935;BME280;38802;50.198;19.796;2022-09-27T04:37:12;94790.02;;;6.89;89.33
52935;BME280;38802;50.198;19.796;2022-09-27T04:39:45;94790.81;;;6.88;89.31
52935;BME280;38802;50.198;19.796;2022-09-27T04:42:14;94786.27;;;6.87;89.35
52935;BME280;38802;50.198;19.796;2022-09-27T04:44:43;94790.95;;;6.85;89.07
52935;BME280;38802;50.198;19.796;2022-09-27T04:47:12;94800.58;;;6.84;89.41
52935;BME280;38802;50.198;19.796;2022-09-27T04:49:41;94808.29;;;6.84;89.40
52935;BME280;38802;50.198;19.796;2022-09-27T04:52:09;94812.08;;;6.86;89.62
52935;BME280;38802;50.198;19.796;2022-09-27T04:54:37;94807.96;;;6.88;89.74
52935;BME280;38802;50.198;19.796;2022-09-27T04:57:10;94803.98;;;6.88;89.52
52935;BME280;38802;50.198;19.796;2022-09-27T04:59:39;94800.32;;;6.88;89.59
52935;BME280;38802;50.198;19.796;2022-09-27T05:02:08;94798.58;;;6.88;89.54
52935;BME280;38802;50.198;19.796;2022-09-27T05:04:55;94797.00;;;6.89;89.53
52935;BME280;38802;50.198;19.796;2022-09-27T05:07:32;94796.64;;;6.91;89.86
52935;BME280;38802;50.198;19.796;2022-09-27T05:10:04;94791.08;;;6.95;90.04
52935;BME280;38802;50.198;19.796;2022-09-27T05:12:33;94787.55;;;7.00;90.13
52935;BME280;38802;50.198;19.796;2022-09-27T05:15:03;94776.61;;;7.02;90.00
52935;BME280;38802;50.198;19.796;2022-09-27T05:17:37;94779.55;;;7.04;89.92
52935;BME280;38802;50.198;19.796;2022-09-27T05:20:25;94780.82;;;7.09;90.05
52935;BME280;38802;50.198;19.796;2022-09-27T05:22:56;94775.97;;;7.16;90.34
52935;BME280;38802;50.198;19.796;2022-09-27T05:25:24;94765.71;;;7.25;90.22
52935;BME280;38802;50.198;19.796;2022-09-27T05:27:52;94766.49;;;7.33;90.09
52935;BME280;38802;50.198;19.796;2022-09-27T05:30:21;94756.77;;;7.43;90.27
52935;BME280;38802;50.198;19.796;2022-09-27T05:32:53;94751.65;;;7.57;90.61
52935;BME280;38802;50.198;19.796;2022-09-27T05:35:25;94750.63;;;7.72;90.81
52935;BME280;38802;50.198;19.796;2022-09-27T05:37:56;94754.85;;;7.89;91.12
52935;BME280;38802;50.198;19.796;2022-09-27T05:40:25;94753.77;;;8.07;91.20
52935;BME280;38802;50.198;19.796;2022-09-27T05:43:10;94751.50;;;8.26;91.29
52935;BME280;38802;50.198;19.796;2022-09-27T05:45:39;94748.17;;;8.41;91.23
52935;BME280;38802;50.198;19.796;2022-09-27T05:48:08;94738.98;;;8.59;91.44
52935;BME280;38802;50.198;19.796;2022-09-27T05:50:43;94734.86;;;8.76;91.35
52935;BME280;38802;50.198;19.796;2022-09-27T05:53:12;94736.36;;;8.92;91.51
52935;BME280;38802;50.198;19.796;2022-09-27T05:55:41;94739.23;;;9.08;91.43
52935;BME280;38802;50.198;19.796;2022-09-27T05:58:10;94737.03;;;9.25;91.64
52935;BME280;38802;50.198;19.796;2022-09-27T06:00:48;94735.17;;;9.43;91.75
52935;BME280;38802;50.198;19.796;2022-09-27T06:03:36;94731.17;;;9.62;91.62
52935;BME280;38802;50.198;19.796;2022-09-27T06:06:35;94727.41;;;9.80;91.54
52935;BME280;38802;50.198;19.796;2022-09-27T06:09:09;94726.84;;;9.94;91.40
52935;BME280;38802;50.198;19.796;2022-09-27T06:11:38;94733.38;;;10.08;91.33
52935;BME280;38802;50.198;19.796;2022-09-27T06:14:12;94733.27;;;10.21;91.10
52935;BME280;38802;50.198;19.796;2022-09-27T06:16:59;94735.14;;;10.38;91.30
52935;BME280;38802;50.198;19.796;2022-09-27T06:19:31;94733.20;;;10.53;90.90
52935;BME280;38802;50.198;19.796;2022-09-27T06:21:59;94732.20;;;10.66;90.43
52935;BME280;38802;50.198;19.796;2022-09-27T06:24:36;94731.27;;;10.81;90.50
52935;BME280;38802;50.198;19.796;2022-09-27T06:27:11;94729.73;;;10.92;90.27
52935;BME280;38802;50.198;19.796;2022-09-27T06:29:49;94728.66;;;11.03;90.14
52935;BME280;38802;50.198;19.796;2022-09-27T06:32:35;94727.73;;;11.07;89.01
52935;BME280;38802;50.198;19.796;2022-09-27T06:35:24;94729.27;;;11.08;89.36
52935;BME280;38802;50.198;19.796;2022-09-27T06:37:52;94724.54;;;11.11;89.25
52935;BME280;38802;50.198;19.796;2022-09-27T06:40:21;94725.11;;;11.17;89.25
52935;BME280;38802;50.198;19.796;2022-09-27T06:43:11;94726.17;;;11.23;89.38
52935;BME280;38802;50.198;19.796;2022-09-27T06:46:09;94727.22;;;11.26;89.00
52935;BME280;38802;50.198;19.796;2022-09-27T06:49:04;94727.52;;;11.30;89.03
52935;BME280;38802;50.198;19.796;2022-09-27T06:51:33;94728.60;;;11.36;89.05
52935;BME280;38802;50.198;19.796;2022-09-27T06:54:02;94731.33;;;11.40;88.77
52935;BME280;38802;50.198;19.796;2022-09-27T06:56:31;94732.56;;;11.41;88.27
52935;BME280;38802;50.198;19.796;2022-09-27T06:59:00;94738.02;;;11.41;88.28
52935;BME280;38802;50.198;19.796;2022-09-27T07:01:49;94738.34;;;11.41;88.02
52935;BME280;38802;50.198;19.796;2022-09-27T07:04:38;94739.13;;;11.39;87.97
52935;BME280;38802;50.198;19.796;2022-09-27T07:07:15;94740.38;;;11.35;87.68
52935;BME280;38802;50.198;19.796;2022-09-27T07:09:45;94743.58;;;11.34;87.88
52935;BME280;38802;50.198;19.796;2022-09-27T07:12:14;94745.04;;;11.34;87.22
52935;BME280;38802;50.198;19.796;2022-09-27T07:14:42;94743.62;;;11.30;87.25
52935;BME280;38802;50.198;19.796;2022-09-27T07:17:13;94738.77;;;11.30;87.22
52935;BME280;38802;50.198;19.796;2022-09-27T07:19:44;94736.08;;;11.31;87.11
52935;BME280;38802;50.198;19.796;2022-09-27T07:22:14;94738.66;;;11.31;87.10
52935;BME280;38802;50.198;19.796;2022-09-27T07:24:45;94737.64;;;11.31;86.32
52935;BME280;38802;50.198;19.796;2022-09-27T07:27:14;94738.36;;;11.26;85.90
52935;BME280;38802;50.198;19.796;2022-09-27T07:29:42;94730.05;;;11.23;86.26
52935;BME280;38802;50.198;19.796;2022-09-27T07:32:12;94728.68;;;11.22;85.68
52935;BME280;38802;50.198;19.796;2022-09-27T07:34:40;94725.73;;;11.24;85.88
52935;BME280;38802;50.198;19.796;2022-09-27T07:37:08;94723.95;;;11.29;85.95
52935;BME280;38802;50.198;19.796;2022-09-27T07:39:39;94723.39;;;11.36;86.06
52935;BME280;38802;50.198;19.796;2022-09-27T07:42:07;94720.88;;;11.46;86.28
52935;BME280;38802;50.198;19.796;2022-09-27T07:44:40;94719.39;;;11.58;86.34
52935;BME280;38802;50.198;19.796;2022-09-27T07:47:28;94717.69;;;11.70;85.86
52935;BME280;38802;50.198;19.796;2022-09-27T07:50:06;94712.92;;;11.79;85.52
52935;BME280;38802;50.198;19.796;2022-09-27T07:52:44;94716.23;;;11.88;85.62
52935;BME280;38802;50.198;19.796;2022-09-27T07:55:32;94718.82;;;11.99;85.26
52935;BME280;38802;50.198;19.796;2022-09-27T07:58:13;94719.77;;;12.05;84.36
52935;BME280;38802;50.198;19.796;2022-09-27T08:00:41;94713.94;;;12.10;84.36
52935;BME280;38802;50.198;19.796;2022-09-27T08:03:11;94709.70;;;12.18;84.67
52935;BME280;38802;50.198;19.796;2022-09-27T08:05:45;94706.59;;;12.29;84.73
52935;BME280;38802;50.198;19.796;2022-09-27T08:08:15;94705.35;;;12.37;84.05
52935;BME280;38802;50.198;19.796;2022-09-27T08:10:45;94709.41;;;12.44;83.45
52935;BME280;38802;50.198;19.796;2022-09-27T08:13:15;94707.90;;;12.45;82.40
52935;BME280;38802;50.198;19.796;2022-09-27T08:15:49;94708.27;;;12.45;82.96
52935;BME280;38802;50.198;19.796;2022-09-27T08:18:20;94706.37;;;12.49;82.95
52935;BME280;38802;50.198;19.796;2022-09-27T08:20:56;94707.95;;;12.52;81.76
52935;BME280;38802;50.198;19.796;2022-09-27T08:23:28;94703.50;;;12.48;80.27
52935;BME280;38802;50.198;19.796;2022-09-27T08:26:19;94705.38;;;12.50;80.94
52935;BME280;38802;50.198;19.796;2022-09-27T08:29:04;94704.65;;;12.52;80.36
52935;BME280;38802;50.198;19.796;2022-09-27T08:31:37;94705.11;;;12.55;81.11
52935;BME280;38802;50.198;19.796;2022-09-27T08:34:07;94706.14;;;12.61;80.01
52935;BME280;38802;50.198;19.796;2022-09-27T08:36:35;94706.33;;;12.62;80.77
52935;BME280;38802;50.198;19.796;2022-09-27T08:39:04;94704.12;;;12.67;80.67
52935;BME280;38802;50.198;19.796;2022-09-27T08:41:46;94704.38;;;12.76;80.39
52935;BME280;38802;50.198;19.796;2022-09-27T08:47:17;94701.71;;;12.85;79.28
52935;BME280;38802;50.198;19.796;2022-09-27T08:49:57;94697.56;;;12.88;79.91
52935;BME280;38802;50.198;19.796;2022-09-27T08:52:55;94696.75;;;12.93;80.00
52935;BME280;38802;50.198;19.796;2022-09-27T09:01:03;94695.70;;;12.93;78.94
52935;BME280;38802;50.198;19.796;2022-09-27T09:03:42;94692.77;;;12.98;78.73
52935;BME280;38802;50.198;19.796;2022-09-27T09:09:14;94687.55;;;13.05;78.27
52935;BME280;38802;50.198;19.796;2022-09-27T09:23:20;94675.19;;;13.51;77.66
52935;BME280;38802;50.198;19.796;2022-09-27T09:34:21;94660.15;;;13.76;76.72
52935;BME280;38802;50.198;19.796;2022-09-27T09:36:58;94659.26;;;13.76;76.96
52935;BME280;38802;50.198;19.796;2022-09-27T09:39:35;94656.69;;;13.77;76.73
52935;BME280;38802;50.198;19.796;2022-09-27T09:42:11;94647.71;;;13.78;76.09
52935;BME280;38802;50.198;19.796;2022-09-27T09:44:50;94644.91;;;13.79;75.55
52935;BME280;38802;50.198;19.796;2022-09-27T09:47:41;94640.83;;;13.78;75.02
52935;BME280;38802;50.198;19.796;2022-09-27T09:50:26;94640.91;;;13.82;74.97
52935;BME280;38802;50.198;19.796;2022-09-27T09:53:10;94638.40;;;13.84;74.98
52935;BME280;38802;50.198;19.796;2022-09-27T09:55:46;94634.96;;;13.86;75.51
52935;BME280;38802;50.198;19.796;2022-09-27T09:58:27;94626.90;;;13.92;74.00
52935;BME280;38802;50.198;19.796;2022-09-27T10:01:18;94623.44;;;13.91;74.36
52935;BME280;38802;50.198;19.796;2022-09-27T10:03:47;94624.57;;;14.00;74.89
52935;BME280;38802;50.198;19.796;2022-09-27T10:06:16;94624.85;;;14.08;74.69
52935;BME280;38802;50.198;19.796;2022-09-27T10:08:46;94619.73;;;14.14;74.65
52935;BME280;38802;50.198;19.796;2022-09-27T10:11:31;94612.81;;;14.18;74.35
52935;BME280;38802;50.198;19.796;2022-09-27T10:14:14;94607.46;;;14.20;72.68
52935;BME280;38802;50.198;19.796;2022-09-27T10:16:49;94600.46;;;14.26;73.86
52935;BME280;38802;50.198;19.796;2022-09-27T10:19:27;94599.36;;;14.35;73.94
52935;BME280;38802;50.198;19.796;2022-09-27T10:22:04;94595.98;;;14.47;73.74
52935;BME280;38802;50.198;19.796;2022-09-27T10:24:57;94587.58;;;14.52;73.57
52935;BME280;38802;50.198;19.796;2022-09-27T10:27:51;94584.68;;;14.47;73.65
52935;BME280;38802;50.198;19.796;2022-09-27T10:30:27;94586.11;;;14.42;73.47
52935;BME280;38802;50.198;19.796;2022-09-27T10:33:04;94583.13;;;14.42;73.27
52935;BME280;38802;50.198;19.796;2022-09-27T10:35:44;94580.20;;;14.46;73.19
52935;BME280;38802;50.198;19.796;2022-09-27T10:38:32;94581.45;;;14.50;72.60
52935;BME280;38802;50.198;19.796;2022-09-27T10:41:19;94580.08;;;14.53;72.07
52935;BME280;38802;50.198;19.796;2022-09-27T10:43:50;94583.30;;;14.58;71.60
52935;BME280;38802;50.198;19.796;2022-09-27T10:46:30;94582.10;;;14.63;72.23
52935;BME280;38802;50.198;19.796;2022-09-27T10:49:26;94575.77;;;14.71;72.07
52935;BME280;38802;50.198;19.796;2022-09-27T10:52:13;94567.08;;;14.73;71.16
52935;BME280;38802;50.198;19.796;2022-09-27T10:54:53;94565.29;;;14.71;70.59
52935;BME280;38802;50.198;19.796;2022-09-27T10:57:24;94558.08;;;14.68;71.10
52935;BME280;38802;50.198;19.796;2022-09-27T10:59:54;94557.63;;;14.66;71.27
52935;BME280;38802;50.198;19.796;2022-09-27T11:02:28;94561.05;;;14.65;71.22
52935;BME280;38802;50.198;19.796;2022-09-27T11:10:33;94557.15;;;14.59;69.84
52935;BME280;38802;50.198;19.796;2022-09-27T11:13:05;94560.46;;;14.61;70.16
52935;BME280;38802;50.198;19.796;2022-09-27T11:19:18;94556.41;;;14.71;70.22
52935;BME280;38802;50.198;19.796;2022-09-27T11:38:16;94548.83;;;14.72;70.56
52935;BME280;38802;50.198;19.796;2022-09-27T11:41:36;94544.05;;;14.69;70.16
52935;BME280;38802;50.198;19.796;2022-09-27T11:44:47;94543.89;;;14.69;70.77
52935;BME280;38802;50.198;19.796;2022-09-27T11:47:13;94538.72;;;14.67;69.78
52935;BME280;38802;50.198;19.796;2022-09-27T11:56:14;94534.10;;;14.57;70.23
52935;BME280;38802;50.198;19.796;2022-09-27T11:59:22;94531.06;;;14.56;70.72
52935;BME280;38802;50.198;19.796;2022-09-27T12:10:14;94524.02;;;14.57;71.13
52935;BME280;38802;50.198;19.796;2022-09-27T12:12:49;94521.20;;;14.58;71.21
52935;BME280;38802;50.198;19.796;2022-09-27T12:15:22;94521.33;;;14.59;71.26
52935;BME280;38802;50.198;19.796;2022-09-27T12:17:59;94519.39;;;14.59;71.44
52935;BME280;38802;50.198;19.796;2022-09-27T12:20:35;94515.97;;;14.60;71.46
52935;BME280;38802;50.198;19.796;2022-09-27T12:23:21;94511.73;;;14.60;71.85
52935;BME280;38802;50.198;19.796;2022-09-27T12:26:22;94511.62;;;14.61;71.92
52935;BME280;38802;50.198;19.796;2022-09-27T12:28:55;94507.54;;;14.60;71.91
52935;BME280;38802;50.198;19.796;2022-09-27T12:37:00;94496.91;;;14.56;71.93
52935;BME280;38802;50.198;19.796;2022-09-27T12:42:37;94499.17;;;14.62;72.48
52935;BME280;38802;50.198;19.796;2022-09-27T12:45:53;94492.38;;;14.66;72.27
52935;BME280;38802;50.198;19.796;2022-09-27T12:51:13;94485.95;;;14.71;72.02
52935;BME280;38802;50.198;19.796;2022-09-27T13:13:33;94459.08;;;14.85;73.18
52935;BME280;38802;50.198;19.796;2022-09-27T13:16:06;94455.73;;;14.86;73.33
52935;BME280;38802;50.198;19.796;2022-09-27T13:18:56;94450.18;;;14.89;73.27
52935;BME280;38802;50.198;19.796;2022-09-27T13:24:43;94451.23;;;14.90;73.61
52935;BME280;38802;50.198;19.796;2022-09-27T13:32:38;94448.05;;;15.04;73.34
52935;BME280;38802;50.198;19.796;2022-09-27T13:35:28;94448.52;;;15.13;73.47
52935;BME280;38802;50.198;19.796;2022-09-27T13:38:01;94447.16;;;15.21;73.52
52935;BME280;38802;50.198;19.796;2022-09-27T13:40:34;94445.73;;;15.28;73.61
52935;BME280;38802;50.198;19.796;2022-09-27T13:46:01;94441.98;;;15.32;72.23
52935;BME280;38802;50.198;19.796;2022-09-27T13:54:04;94428.88;;;15.17;72.40
52935;BME280;38802;50.198;19.796;2022-09-27T14:02:35;94432.56;;;15.04;72.01
52935;BME280;38802;50.198;19.796;2022-09-27T14:05:10;94428.98;;;15.00;71.97
52935;BME280;38802;50.198;19.796;2022-09-27T14:07:42;94426.96;;;14.95;71.87
52935;BME280;38802;50.198;19.796;2022-09-27T14:10:16;94425.94;;;14.91;71.70
52935;BME280;38802;50.198;19.796;2022-09-27T14:12:46;94420.89;;;14.87;71.89
52935;BME280;38802;50.198;19.796;2022-09-27T14:15:27;94418.57;;;14.82;71.80
52935;BME280;38802;50.198;19.796;2022-09-27T14:17:58;94417.91;;;14.72;72.18
52935;BME280;38802;50.198;19.796;2022-09-27T14:20:46;94424.24;;;14.65;72.13
52935;BME280;38802;50.198;19.796;2022-09-27T14:23:37;94428.70;;;14.50;72.61
52935;BME280;38802;50.198;19.796;2022-09-27T14:26:23;94432.01;;;14.40;72.97
52935;BME280;38802;50.198;19.796;2022-09-27T14:28:52;94433.30;;;14.30;73.21
52935;BME280;38802;50.198;19.796;2022-09-27T14:31:38;94435.89;;;14.21;73.23
52935;BME280;38802;50.198;19.796;2022-09-27T14:34:21;94438.42;;;14.12;73.15
52935;BME280;38802;50.198;19.796;2022-09-27T14:36:52;94449.18;;;14.06;73.27
52935;BME280;38802;50.198;19.796;2022-09-27T14:40:04;94452.97;;;14.00;73.91
52935;BME280;38802;50.198;19.796;2022-09-27T14:42:37;94450.84;;;13.95;73.95
52935;BME280;38802;50.198;19.796;2022-09-27T14:45:38;94453.39;;;13.93;74.05
52935;BME280;38802;50.198;19.796;2022-09-27T14:50:56;94466.08;;;13.87;74.16
52935;BME280;38802;50.198;19.796;2022-09-27T14:53:41;94468.73;;;13.85;74.45
52935;BME280;38802;50.198;19.796;2022-09-27T14:56:33;94474.77;;;13.83;74.19
52935;BME280;38802;50.198;19.796;2022-09-27T14:59:16;94476.10;;;13.79;74.54
52935;BME280;38802;50.198;19.796;2022-09-27T15:01:50;94474.65;;;13.74;74.66
52935;BME280;38802;50.198;19.796;2022-09-27T15:04:21;94478.48;;;13.70;74.81
52935;BME280;38802;50.198;19.796;2022-09-27T15:06:51;94479.49;;;13.66;74.60
52935;BME280;38802;50.198;19.796;2022-09-27T15:09:19;94479.13;;;13.61;75.14
52935;BME280;38802;50.198;19.796;2022-09-27T15:11:55;94477.09;;;13.55;75.25
52935;BME280;38802;50.198;19.796;2022-09-27T15:14:26;94472.05;;;13.49;74.98
52935;BME280;38802;50.198;19.796;2022-09-27T15:16:56;94474.43;;;13.43;75.41
52935;BME280;38802;50.198;19.796;2022-09-27T15:19:29;94475.95;;;13.38;75.59
52935;BME280;38802;50.198;19.796;2022-09-27T15:22:36;94478.22;;;13.32;75.76
52935;BME280;38802;50.198;19.796;2022-09-27T15:27:49;94483.27;;;13.09;76.51
52935;BME280;38802;50.198;19.796;2022-09-27T15:30:23;94483.98;;;12.93;76.55
52935;BME280;38802;50.198;19.796;2022-09-27T15:32:56;94484.81;;;12.82;77.16
52935;BME280;38802;50.198;19.796;2022-09-27T15:35:31;94486.45;;;12.71;76.86
52935;BME280;38802;50.198;19.796;2022-09-27T15:43:21;94483.91;;;12.33;77.57
52935;BME280;38802;50.198;19.796;2022-09-27T15:45:51;94483.52;;;12.23;77.84
52935;BME280;38802;50.198;19.796;2022-09-27T15:48:20;94487.22;;;12.15;78.23
52935;BME280;38802;50.198;19.796;2022-09-27T15:50:48;94486.81;;;12.05;78.27
52935;BME280;38802;50.198;19.796;2022-09-27T15:53:40;94492.94;;;11.96;78.75
52935;BME280;38802;50.198;19.796;2022-09-27T15:56:11;94495.23;;;11.81;78.89
52935;BME280;38802;50.198;19.796;2022-09-27T15:58:41;94499.82;;;11.63;78.99
52935;BME280;38802;50.198;19.796;2022-09-27T16:01:17;94501.25;;;11.46;78.82
52935;BME280;38802;50.198;19.796;2022-09-27T16:03:46;94497.83;;;11.30;79.10
52935;BME280;38802;50.198;19.796;2022-09-27T16:06:14;94495.55;;;11.17;79.07
52935;BME280;38802;50.198;19.796;2022-09-27T16:08:42;94498.00;;;11.04;79.05
52935;BME280;38802;50.198;19.796;2022-09-27T16:11:14;94493.44;;;10.93;79.13
52935;BME280;38802;50.198;19.796;2022-09-27T16:13:43;94489.66;;;10.85;78.92
52935;BME280;38802;50.198;19.796;2022-09-27T16:16:14;94491.65;;;10.80;79.09
52935;BME280;38802;50.198;19.796;2022-09-27T16:18:45;94486.30;;;10.75;79.29
52935;BME280;38802;50.198;19.796;2022-09-27T16:21:14;94490.85;;;10.71;79.30
52935;BME280;38802;50.198;19.796;2022-09-27T16:23:42;94496.91;;;10.68;79.41
52935;BME280;38802;50.198;19.796;2022-09-27T16:26:10;94497.68;;;10.65;79.07
52935;BME280;38802;50.198;19.796;2022-09-27T16:28:38;94500.73;;;10.61;79.42
52935;BME280;38802;50.198;19.796;2022-09-27T16:31:06;94503.14;;;10.58;79.51
52935;BME280;38802;50.198;19.796;2022-09-27T16:33:37;94506.98;;;10.53;79.42
52935;BME280;38802;50.198;19.796;2022-09-27T16:36:06;94510.25;;;10.49;79.51
52935;BME280;38802;50.198;19.796;2022-09-27T16:38:41;94512.05;;;10.43;79.61
52935;BME280;38802;50.198;19.796;2022-09-27T16:41:09;94516.38;;;10.38;79.51
52935;BME280;38802;50.198;19.796;2022-09-27T16:43:37;94515.63;;;10.34;79.66